sensor_id;sensor_type;location;lat;lon;timestamp;P1;durP1;ratioP1;P2;durP2;ratioP2
3131;SDS011;62090;52.330;9.104;2023-01-29T00:01:09;30.50;;;22.77;;
3131;SDS011;62090;52.330;9.104;2023-01-29T00:03:39;32.50;;;25.37;;
3131;SDS011;62090;52.330;9.104;2023-01-29T00:06:09;29.90;;;23.67;;
3131;SDS011;62090;52.330;9.104;2023-01-29T00:08:41;34.87;;;25.07;;
3131;SDS011;62090;52.330;9.104;2023-01-29T00:11:11;28.07;;;22.50;;
3131;SDS011;62090;52.330;9.104;2023-01-29T00:13:42;28.40;;;24.27;;
3131;SDS011;62090;52.330;9.104;2023-01-29T00:16:12;28.30;;;23.33;;
3131;SDS011;62090;52.330;9.104;2023-01-29T00:18:42;28.43;;;23.60;;
3131;SDS011;62090;52.330;9.104;2023-01-29T00:21:13;29.97;;;24.37;;
3131;SDS011;62090;52.330;9.104;2023-01-29T00:23:47;31.10;;;23.67;;
3131;SDS011;62090;52.330;9.104;2023-01-29T00:26:17;34.03;;;25.37;;
3131;SDS011;62090;52.330;9.104;2023-01-29T00:28:47;28.53;;;23.90;;
3131;SDS011;62090;52.330;9.104;2023-01-29T00:31:18;31.13;;;23.80;;
3131;SDS011;62090;52.330;9.104;2023-01-29T00:33:49;30.08;;;24.35;;
3131;SDS011;62090;52.330;9.104;2023-01-29T00:36:19;30.50;;;24.60;;
3131;SDS011;62090;52.330;9.104;2023-01-29T00:38:55;31.13;;;24.23;;
3131;SDS011;62090;52.330;9.104;2023-01-29T00:41:29;31.10;;;23.87;;
3131;SDS011;62090;52.330;9.104;2023-01-29T00:44:13;32.80;;;25.03;;
3131;SDS011;62090;52.330;9.104;2023-01-29T00:46:56;29.33;;;23.63;;
3131;SDS011;62090;52.330;9.104;2023-01-29T00:49:26;27.93;;;22.70;;
3131;SDS011;62090;52.330;9.104;2023-01-29T00:51:57;33.80;;;24.20;;
3131;SDS011;62090;52.330;9.104;2023-01-29T00:54:41;29.27;;;24.53;;
3131;SDS011;62090;52.330;9.104;2023-01-29T00:57:11;28.70;;;23.37;;
3131;SDS011;62090;52.330;9.104;2023-01-29T00:59:41;31.52;;;24.80;;
3131;SDS011;62090;52.330;9.104;2023-01-29T01:02:11;33.10;;;23.90;;
3131;SDS011;62090;52.330;9.104;2023-01-29T01:04:56;35.23;;;25.90;;
3131;SDS011;62090;52.330;9.104;2023-01-29T01:07:29;31.17;;;24.23;;
3131;SDS011;62090;52.330;9.104;2023-01-29T01:10:01;31.83;;;24.80;;
3131;SDS011;62090;52.330;9.104;2023-01-29T01:12:44;34.73;;;26.17;;
3131;SDS011;62090;52.330;9.104;2023-01-29T01:15:14;34.28;;;25.40;;
3131;SDS011;62090;52.330;9.104;2023-01-29T01:17:43;31.63;;;25.25;;
3131;SDS011;62090;52.330;9.104;2023-01-29T01:22:45;29.55;;;23.73;;
3131;SDS011;62090;52.330;9.104;2023-01-29T01:25:17;30.45;;;24.83;;
3131;SDS011;62090;52.330;9.104;2023-01-29T01:27:50;33.42;;;25.42;;
3131;SDS011;62090;52.330;9.104;2023-01-29T01:30:20;30.20;;;23.60;;
3131;SDS011;62090;52.330;9.104;2023-01-29T01:32:52;33.53;;;25.13;;
3131;SDS011;62090;52.330;9.104;2023-01-29T01:35:23;33.77;;;24.97;;
3131;SDS011;62090;52.330;9.104;2023-01-29T01:37:52;31.77;;;26.03;;
3131;SDS011;62090;52.330;9.104;2023-01-29T01:40:25;30.33;;;24.63;;
3131;SDS011;62090;52.330;9.104;2023-01-29T01:42:56;32.00;;;24.70;;
3131;SDS011;62090;52.330;9.104;2023-01-29T01:45:27;37.57;;;24.97;;
3131;SDS011;62090;52.330;9.104;2023-01-29T01:48:00;28.17;;;23.38;;
3131;SDS011;62090;52.330;9.104;2023-01-29T01:50:33;29.77;;;23.53;;
3131;SDS011;62090;52.330;9.104;2023-01-29T01:53:09;30.03;;;23.90;;
3131;SDS011;62090;52.330;9.104;2023-01-29T01:55:44;28.70;;;22.80;;
3131;SDS011;62090;52.330;9.104;2023-01-29T01:58:20;29.17;;;23.03;;
3131;SDS011;62090;52.330;9.104;2023-01-29T02:00:52;30.37;;;24.20;;
3131;SDS011;62090;52.330;9.104;2023-01-29T02:03:23;32.63;;;23.67;;
3131;SDS011;62090;52.330;9.104;2023-01-29T02:06:09;33.83;;;24.50;;
3131;SDS011;62090;52.330;9.104;2023-01-29T02:08:53;28.87;;;23.40;;
3131;SDS011;62090;52.330;9.104;2023-01-29T02:11:42;27.97;;;22.90;;
3131;SDS011;62090;52.330;9.104;2023-01-29T02:14:12;30.73;;;23.50;;
3131;SDS011;62090;52.330;9.104;2023-01-29T02:16:42;28.60;;;22.80;;
3131;SDS011;62090;52.330;9.104;2023-01-29T02:19:15;33.23;;;24.00;;
3131;SDS011;62090;52.330;9.104;2023-01-29T02:22:11;32.37;;;24.40;;
3131;SDS011;62090;52.330;9.104;2023-01-29T02:24:58;31.83;;;24.20;;
3131;SDS011;62090;52.330;9.104;2023-01-29T02:27:44;30.73;;;23.87;;
3131;SDS011;62090;52.330;9.104;2023-01-29T02:30:34;32.93;;;24.17;;
3131;SDS011;62090;52.330;9.104;2023-01-29T02:33:12;28.50;;;23.00;;
3131;SDS011;62090;52.330;9.104;2023-01-29T02:35:49;28.97;;;21.87;;
3131;SDS011;62090;52.330;9.104;2023-01-29T02:38:27;32.90;;;22.73;;
3131;SDS011;62090;52.330;9.104;2023-01-29T02:41:05;29.27;;;22.60;;
3131;SDS011;62090;52.330;9.104;2023-01-29T02:43:44;28.60;;;22.30;;
3131;SDS011;62090;52.330;9.104;2023-01-29T02:46:20;28.37;;;22.60;;
3131;SDS011;62090;52.330;9.104;2023-01-29T02:48:58;30.80;;;21.20;;
3131;SDS011;62090;52.330;9.104;2023-01-29T02:51:37;30.63;;;22.07;;
3131;SDS011;62090;52.330;9.104;2023-01-29T02:54:16;32.27;;;23.27;;
3131;SDS011;62090;52.330;9.104;2023-01-29T02:56:53;32.10;;;23.80;;
3131;SDS011;62090;52.330;9.104;2023-01-29T02:59:31;26.57;;;21.57;;
3131;SDS011;62090;52.330;9.104;2023-01-29T03:02:08;32.10;;;22.00;;
3131;SDS011;62090;52.330;9.104;2023-01-29T03:04:42;29.43;;;22.23;;
3131;SDS011;62090;52.330;9.104;2023-01-29T03:07:17;27.80;;;21.87;;
3131;SDS011;62090;52.330;9.104;2023-01-29T03:10:05;28.23;;;21.40;;
3131;SDS011;62090;52.330;9.104;2023-01-29T03:12:41;28.33;;;22.07;;
3131;SDS011;62090;52.330;9.104;2023-01-29T03:15:15;30.70;;;22.53;;
3131;SDS011;62090;52.330;9.104;2023-01-29T03:18:20;31.30;;;21.67;;
3131;SDS011;62090;52.330;9.104;2023-01-29T03:20:59;25.93;;;22.00;;
3131;SDS011;62090;52.330;9.104;2023-01-29T03:23:54;32.23;;;24.10;;
3131;SDS011;62090;52.330;9.104;2023-01-29T03:26:42;27.63;;;22.57;;
3131;SDS011;62090;52.330;9.104;2023-01-29T03:29:28;28.47;;;21.93;;
3131;SDS011;62090;52.330;9.104;2023-01-29T03:32:12;30.70;;;23.33;;
3131;SDS011;62090;52.330;9.104;2023-01-29T03:34:47;30.37;;;23.33;;
3131;SDS011;62090;52.330;9.104;2023-01-29T03:37:21;29.23;;;22.90;;
3131;SDS011;62090;52.330;9.104;2023-01-29T03:39:55;29.80;;;22.53;;
3131;SDS011;62090;52.330;9.104;2023-01-29T03:42:26;29.37;;;23.33;;
3131;SDS011;62090;52.330;9.104;2023-01-29T03:45:05;33.20;;;23.93;;
3131;SDS011;62090;52.330;9.104;2023-01-29T03:47:47;29.73;;;23.30;;
3131;SDS011;62090;52.330;9.104;2023-01-29T03:50:26;32.03;;;23.90;;
3131;SDS011;62090;52.330;9.104;2023-01-29T03:53:04;31.13;;;23.07;;
3131;SDS011;62090;52.330;9.104;2023-01-29T03:55:39;35.00;;;24.63;;
3131;SDS011;62090;52.330;9.104;2023-01-29T03:58:15;31.77;;;24.70;;
3131;SDS011;62090;52.330;9.104;2023-01-29T04:00:54;33.33;;;24.20;;
3131;SDS011;62090;52.330;9.104;2023-01-29T04:03:28;39.60;;;26.43;;
3131;SDS011;62090;52.330;9.104;2023-01-29T04:06:08;38.53;;;26.47;;
3131;SDS011;62090;52.330;9.104;2023-01-29T04:09:02;35.00;;;24.63;;
3131;SDS011;62090;52.330;9.104;2023-01-29T04:11:39;37.30;;;25.67;;
3131;SDS011;62090;52.330;9.104;2023-01-29T04:14:13;35.53;;;26.92;;
3131;SDS011;62090;52.330;9.104;2023-01-29T04:16:46;34.00;;;24.63;;
3131;SDS011;62090;52.330;9.104;2023-01-29T04:19:32;42.33;;;26.97;;
3131;SDS011;62090;52.330;9.104;2023-01-29T04:22:06;39.23;;;29.30;;
3131;SDS011;62090;52.330;9.104;2023-01-29T04:24:40;39.47;;;26.80;;
3131;SDS011;62090;52.330;9.104;2023-01-29T04:27:15;35.47;;;25.33;;
3131;SDS011;62090;52.330;9.104;2023-01-29T04:30:01;38.33;;;27.10;;
3131;SDS011;62090;52.330;9.104;2023-01-29T04:32:42;33.50;;;25.60;;
3131;SDS011;62090;52.330;9.104;2023-01-29T04:35:27;41.20;;;29.10;;
3131;SDS011;62090;52.330;9.104;2023-01-29T04:38:09;39.30;;;28.07;;
3131;SDS011;62090;52.330;9.104;2023-01-29T04:40:48;38.00;;;27.40;;
3131;SDS011;62090;52.330;9.104;2023-01-29T04:43:23;37.77;;;27.53;;
3131;SDS011;62090;52.330;9.104;2023-01-29T04:46:00;39.23;;;28.87;;
3131;SDS011;62090;52.330;9.104;2023-01-29T04:48:42;39.83;;;27.73;;
3131;SDS011;62090;52.330;9.104;2023-01-29T04:51:21;40.10;;;28.50;;
3131;SDS011;62090;52.330;9.104;2023-01-29T04:53:59;40.10;;;30.07;;
3131;SDS011;62090;52.330;9.104;2023-01-29T04:56:38;41.97;;;29.10;;
3131;SDS011;62090;52.330;9.104;2023-01-29T04:59:11;37.13;;;27.53;;
3131;SDS011;62090;52.330;9.104;2023-01-29T05:01:46;40.63;;;28.70;;
3131;SDS011;62090;52.330;9.104;2023-01-29T05:04:17;44.90;;;30.63;;
3131;SDS011;62090;52.330;9.104;2023-01-29T05:06:48;41.53;;;29.90;;
3131;SDS011;62090;52.330;9.104;2023-01-29T05:09:21;45.00;;;31.10;;
3131;SDS011;62090;52.330;9.104;2023-01-29T05:11:53;45.23;;;32.20;;
3131;SDS011;62090;52.330;9.104;2023-01-29T05:14:23;45.80;;;33.27;;
3131;SDS011;62090;52.330;9.104;2023-01-29T05:16:56;42.93;;;30.00;;
3131;SDS011;62090;52.330;9.104;2023-01-29T05:19:32;44.00;;;31.13;;
3131;SDS011;62090;52.330;9.104;2023-01-29T05:22:01;44.77;;;30.20;;
3131;SDS011;62090;52.330;9.104;2023-01-29T05:24:36;45.73;;;30.30;;
3131;SDS011;62090;52.330;9.104;2023-01-29T05:27:05;44.50;;;32.00;;
3131;SDS011;62090;52.330;9.104;2023-01-29T05:29:52;45.23;;;32.20;;
3131;SDS011;62090;52.330;9.104;2023-01-29T05:32:23;44.33;;;31.70;;
3131;SDS011;62090;52.330;9.104;2023-01-29T05:34:53;46.73;;;32.50;;
3131;SDS011;62090;52.330;9.104;2023-01-29T05:37:22;46.33;;;33.50;;
3131;SDS011;62090;52.330;9.104;2023-01-29T05:39:54;44.57;;;32.40;;
3131;SDS011;62090;52.330;9.104;2023-01-29T05:42:24;44.43;;;33.37;;
3131;SDS011;62090;52.330;9.104;2023-01-29T05:44:54;46.00;;;32.80;;
3131;SDS011;62090;52.330;9.104;2023-01-29T05:47:24;45.38;;;33.10;;
3131;SDS011;62090;52.330;9.104;2023-01-29T05:49:53;48.20;;;32.93;;
3131;SDS011;62090;52.330;9.104;2023-01-29T05:52:23;53.53;;;34.77;;
3131;SDS011;62090;52.330;9.104;2023-01-29T05:54:55;45.80;;;33.10;;
3131;SDS011;62090;52.330;9.104;2023-01-29T05:57:25;47.63;;;33.30;;
3131;SDS011;62090;52.330;9.104;2023-01-29T05:59:54;51.83;;;35.37;;
3131;SDS011;62090;52.330;9.104;2023-01-29T06:02:24;48.97;;;35.20;;
3131;SDS011;62090;52.330;9.104;2023-01-29T06:04:54;51.07;;;34.77;;
3131;SDS011;62090;52.330;9.104;2023-01-29T06:07:23;46.83;;;33.77;;
3131;SDS011;62090;52.330;9.104;2023-01-29T06:09:56;52.63;;;34.53;;
3131;SDS011;62090;52.330;9.104;2023-01-29T06:12:26;50.50;;;33.80;;
3131;SDS011;62090;52.330;9.104;2023-01-29T06:14:56;53.03;;;36.00;;
3131;SDS011;62090;52.330;9.104;2023-01-29T06:17:25;49.27;;;35.47;;
3131;SDS011;62090;52.330;9.104;2023-01-29T06:19:55;49.70;;;35.50;;
3131;SDS011;62090;52.330;9.104;2023-01-29T06:22:25;55.27;;;36.77;;
3131;SDS011;62090;52.330;9.104;2023-01-29T06:24:57;50.97;;;36.87;;
3131;SDS011;62090;52.330;9.104;2023-01-29T06:27:27;53.20;;;36.03;;
3131;SDS011;62090;52.330;9.104;2023-01-29T06:29:56;53.87;;;37.43;;
3131;SDS011;62090;52.330;9.104;2023-01-29T06:32:26;48.67;;;35.55;;
3131;SDS011;62090;52.330;9.104;2023-01-29T06:34:56;54.17;;;38.00;;
3131;SDS011;62090;52.330;9.104;2023-01-29T06:37:26;55.27;;;37.73;;
3131;SDS011;62090;52.330;9.104;2023-01-29T06:39:58;54.00;;;36.60;;
3131;SDS011;62090;52.330;9.104;2023-01-29T06:42:28;51.47;;;35.60;;
3131;SDS011;62090;52.330;9.104;2023-01-29T06:44:57;54.00;;;34.93;;
3131;SDS011;62090;52.330;9.104;2023-01-29T06:47:27;54.37;;;36.60;;
3131;SDS011;62090;52.330;9.104;2023-01-29T06:49:57;58.07;;;38.87;;
3131;SDS011;62090;52.330;9.104;2023-01-29T06:52:27;57.07;;;38.30;;
3131;SDS011;62090;52.330;9.104;2023-01-29T06:54:59;54.67;;;37.97;;
3131;SDS011;62090;52.330;9.104;2023-01-29T06:57:28;59.27;;;40.00;;
3131;SDS011;62090;52.330;9.104;2023-01-29T06:59:58;56.47;;;36.70;;
3131;SDS011;62090;52.330;9.104;2023-01-29T07:02:28;57.17;;;38.00;;
3131;SDS011;62090;52.330;9.104;2023-01-29T07:04:57;61.43;;;39.90;;
3131;SDS011;62090;52.330;9.104;2023-01-29T07:07:27;60.50;;;39.50;;
3131;SDS011;62090;52.330;9.104;2023-01-29T07:09:59;62.00;;;39.17;;
3131;SDS011;62090;52.330;9.104;2023-01-29T07:12:29;57.20;;;39.20;;
3131;SDS011;62090;52.330;9.104;2023-01-29T07:14:59;60.63;;;39.90;;
3131;SDS011;62090;52.330;9.104;2023-01-29T07:17:29;61.17;;;40.60;;
3131;SDS011;62090;52.330;9.104;2023-01-29T07:19:58;64.07;;;40.57;;
3131;SDS011;62090;52.330;9.104;2023-01-29T07:22:28;61.43;;;40.40;;
3131;SDS011;62090;52.330;9.104;2023-01-29T07:25:00;63.83;;;41.67;;
3131;SDS011;62090;52.330;9.104;2023-01-29T07:27:30;63.73;;;41.77;;
3131;SDS011;62090;52.330;9.104;2023-01-29T07:30:00;62.37;;;40.47;;
3131;SDS011;62090;52.330;9.104;2023-01-29T07:32:29;66.13;;;41.50;;
3131;SDS011;62090;52.330;9.104;2023-01-29T07:34:59;58.43;;;38.27;;
3131;SDS011;62090;52.330;9.104;2023-01-29T07:37:29;72.23;;;41.17;;
3131;SDS011;62090;52.330;9.104;2023-01-29T07:40:01;65.63;;;42.40;;
3131;SDS011;62090;52.330;9.104;2023-01-29T07:42:36;67.27;;;41.90;;
3131;SDS011;62090;52.330;9.104;2023-01-29T07:45:08;61.30;;;41.20;;
3131;SDS011;62090;52.330;9.104;2023-01-29T07:47:39;63.93;;;41.90;;
3131;SDS011;62090;52.330;9.104;2023-01-29T07:50:09;66.20;;;41.60;;
3131;SDS011;62090;52.330;9.104;2023-01-29T07:52:40;65.47;;;42.03;;
3131;SDS011;62090;52.330;9.104;2023-01-29T07:55:12;63.20;;;41.50;;
3131;SDS011;62090;52.330;9.104;2023-01-29T07:57:42;59.13;;;38.60;;
3131;SDS011;62090;52.330;9.104;2023-01-29T08:00:12;63.50;;;41.10;;
3131;SDS011;62090;52.330;9.104;2023-01-29T08:02:43;62.67;;;40.38;;
3131;SDS011;62090;52.330;9.104;2023-01-29T08:05:13;133.45;;;45.10;;
3131;SDS011;62090;52.330;9.104;2023-01-29T08:07:43;67.60;;;43.00;;
3131;SDS011;62090;52.330;9.104;2023-01-29T08:10:32;67.57;;;41.47;;
3131;SDS011;62090;52.330;9.104;2023-01-29T08:13:02;71.77;;;41.93;;
3131;SDS011;62090;52.330;9.104;2023-01-29T08:15:33;70.73;;;43.93;;
3131;SDS011;62090;52.330;9.104;2023-01-29T08:18:04;64.53;;;42.37;;
3131;SDS011;62090;52.330;9.104;2023-01-29T08:20:35;68.07;;;44.27;;
3131;SDS011;62090;52.330;9.104;2023-01-29T08:23:05;62.63;;;42.00;;
3131;SDS011;62090;52.330;9.104;2023-01-29T08:25:39;73.87;;;42.23;;
3131;SDS011;62090;52.330;9.104;2023-01-29T08:28:09;68.33;;;42.77;;
3131;SDS011;62090;52.330;9.104;2023-01-29T08:30:40;67.10;;;43.20;;
3131;SDS011;62090;52.330;9.104;2023-01-29T08:33:10;67.30;;;43.10;;
3131;SDS011;62090;52.330;9.104;2023-01-29T08:35:40;61.63;;;40.93;;
3131;SDS011;62090;52.330;9.104;2023-01-29T08:38:10;65.87;;;41.80;;
3131;SDS011;62090;52.330;9.104;2023-01-29T08:40:42;65.67;;;41.97;;
3131;SDS011;62090;52.330;9.104;2023-01-29T08:43:12;64.00;;;40.97;;
3131;SDS011;62090;52.330;9.104;2023-01-29T08:45:42;61.90;;;41.23;;
3131;SDS011;62090;52.330;9.104;2023-01-29T08:48:12;62.60;;;40.50;;
3131;SDS011;62090;52.330;9.104;2023-01-29T08:50:42;59.67;;;40.83;;
3131;SDS011;62090;52.330;9.104;2023-01-29T08:53:11;63.77;;;40.70;;
3131;SDS011;62090;52.330;9.104;2023-01-29T08:55:44;59.80;;;39.97;;
3131;SDS011;62090;52.330;9.104;2023-01-29T08:58:14;61.33;;;40.27;;
3131;SDS011;62090;52.330;9.104;2023-01-29T09:00:44;62.30;;;39.50;;
3131;SDS011;62090;52.330;9.104;2023-01-29T09:03:13;58.20;;;38.20;;
3131;SDS011;62090;52.330;9.104;2023-01-29T09:05:43;58.17;;;38.17;;
3131;SDS011;62090;52.330;9.104;2023-01-29T09:08:13;63.03;;;39.03;;
3131;SDS011;62090;52.330;9.104;2023-01-29T09:10:46;59.20;;;39.00;;
3131;SDS011;62090;52.330;9.104;2023-01-29T09:13:15;59.60;;;38.07;;
3131;SDS011;62090;52.330;9.104;2023-01-29T09:15:45;57.00;;;37.53;;
3131;SDS011;62090;52.330;9.104;2023-01-29T09:18:17;60.07;;;38.00;;
3131;SDS011;62090;52.330;9.104;2023-01-29T09:20:47;58.13;;;39.00;;
3131;SDS011;62090;52.330;9.104;2023-01-29T09:23:17;55.57;;;36.60;;
3131;SDS011;62090;52.330;9.104;2023-01-29T09:25:49;60.33;;;39.60;;
3131;SDS011;62090;52.330;9.104;2023-01-29T09:28:19;59.97;;;40.37;;
3131;SDS011;62090;52.330;9.104;2023-01-29T09:30:48;61.20;;;38.70;;
3131;SDS011;62090;52.330;9.104;2023-01-29T09:33:18;54.30;;;37.60;;
3131;SDS011;62090;52.330;9.104;2023-01-29T09:35:50;57.63;;;37.03;;
3131;SDS011;62090;52.330;9.104;2023-01-29T09:38:19;60.93;;;37.37;;
3131;SDS011;62090;52.330;9.104;2023-01-29T09:40:54;56.23;;;37.50;;
3131;SDS011;62090;52.330;9.104;2023-01-29T09:43:33;55.40;;;37.90;;
3131;SDS011;62090;52.330;9.104;2023-01-29T09:46:13;54.70;;;37.70;;
3131;SDS011;62090;52.330;9.104;2023-01-29T09:48:56;57.10;;;38.13;;
3131;SDS011;62090;52.330;9.104;2023-01-29T09:51:33;54.80;;;36.30;;
3131;SDS011;62090;52.330;9.104;2023-01-29T09:54:12;57.30;;;36.00;;
3131;SDS011;62090;52.330;9.104;2023-01-29T09:56:49;55.03;;;36.30;;
3131;SDS011;62090;52.330;9.104;2023-01-29T09:59:21;57.13;;;37.10;;
3131;SDS011;62090;52.330;9.104;2023-01-29T10:01:54;61.17;;;37.67;;
3131;SDS011;62090;52.330;9.104;2023-01-29T10:04:44;57.87;;;37.40;;
3131;SDS011;62090;52.330;9.104;2023-01-29T10:07:37;60.07;;;38.33;;
3131;SDS011;62090;52.330;9.104;2023-01-29T10:10:34;58.73;;;38.33;;
3131;SDS011;62090;52.330;9.104;2023-01-29T10:13:18;54.80;;;37.30;;
3131;SDS011;62090;52.330;9.104;2023-01-29T10:16:09;60.00;;;38.80;;
3131;SDS011;62090;52.330;9.104;2023-01-29T10:18:57;56.37;;;37.03;;
3131;SDS011;62090;52.330;9.104;2023-01-29T10:21:54;132.70;;;65.70;;
3131;SDS011;62090;52.330;9.104;2023-01-29T10:24:40;58.37;;;37.63;;
3131;SDS011;62090;52.330;9.104;2023-01-29T10:27:16;61.17;;;39.23;;
3131;SDS011;62090;52.330;9.104;2023-01-29T10:29:50;58.10;;;38.90;;
3131;SDS011;62090;52.330;9.104;2023-01-29T10:32:24;57.33;;;39.50;;
3131;SDS011;62090;52.330;9.104;2023-01-29T10:34:55;59.37;;;40.33;;
3131;SDS011;62090;52.330;9.104;2023-01-29T10:37:31;60.67;;;40.30;;
3131;SDS011;62090;52.330;9.104;2023-01-29T10:40:14;60.70;;;39.27;;
3131;SDS011;62090;52.330;9.104;2023-01-29T10:42:49;56.30;;;39.50;;
3131;SDS011;62090;52.330;9.104;2023-01-29T10:45:32;59.80;;;39.40;;
3131;SDS011;62090;52.330;9.104;2023-01-29T10:51:12;61.73;;;39.63;;
3131;SDS011;62090;52.330;9.104;2023-01-29T10:53:53;56.20;;;38.30;;
3131;SDS011;62090;52.330;9.104;2023-01-29T10:56:35;62.83;;;39.47;;
3131;SDS011;62090;52.330;9.104;2023-01-29T10:59:18;63.80;;;42.33;;
3131;SDS011;62090;52.330;9.104;2023-01-29T11:02:01;60.83;;;39.77;;
3131;SDS011;62090;52.330;9.104;2023-01-29T11:04:31;54.93;;;36.33;;
3131;SDS011;62090;52.330;9.104;2023-01-29T11:07:02;57.37;;;36.80;;
3131;SDS011;62090;52.330;9.104;2023-01-29T11:09:33;56.43;;;38.07;;
3131;SDS011;62090;52.330;9.104;2023-01-29T11:12:08;61.30;;;38.87;;
3131;SDS011;62090;52.330;9.104;2023-01-29T11:14:43;58.70;;;38.27;;
3131;SDS011;62090;52.330;9.104;2023-01-29T11:17:23;59.80;;;39.23;;
3131;SDS011;62090;52.330;9.104;2023-01-29T11:19:54;57.50;;;37.90;;
3131;SDS011;62090;52.330;9.104;2023-01-29T11:22:24;60.97;;;42.37;;
3131;SDS011;62090;52.330;9.104;2023-01-29T11:25:09;59.03;;;36.90;;
3131;SDS011;62090;52.330;9.104;2023-01-29T11:27:45;61.57;;;39.20;;
3131;SDS011;62090;52.330;9.104;2023-01-29T11:30:18;56.60;;;37.53;;
3131;SDS011;62090;52.330;9.104;2023-01-29T11:32:56;57.50;;;38.57;;
3131;SDS011;62090;52.330;9.104;2023-01-29T11:35:34;58.43;;;36.40;;
3131;SDS011;62090;52.330;9.104;2023-01-29T11:38:08;53.50;;;35.57;;
3131;SDS011;62090;52.330;9.104;2023-01-29T11:40:46;65.50;;;38.67;;
3131;SDS011;62090;52.330;9.104;2023-01-29T11:43:20;58.83;;;36.60;;
3131;SDS011;62090;52.330;9.104;2023-01-29T11:45:59;56.40;;;37.17;;
3131;SDS011;62090;52.330;9.104;2023-01-29T11:48:38;59.80;;;38.57;;
3131;SDS011;62090;52.330;9.104;2023-01-29T11:51:10;58.33;;;38.30;;
3131;SDS011;62090;52.330;9.104;2023-01-29T11:53:51;61.53;;;37.70;;
3131;SDS011;62090;52.330;9.104;2023-01-29T11:56:26;57.30;;;38.10;;
3131;SDS011;62090;52.330;9.104;2023-01-29T11:58:57;60.20;;;38.00;;
3131;SDS011;62090;52.330;9.104;2023-01-29T12:01:31;55.80;;;36.53;;
3131;SDS011;62090;52.330;9.104;2023-01-29T12:04:10;56.37;;;36.93;;
3131;SDS011;62090;52.330;9.104;2023-01-29T12:06:47;56.63;;;37.73;;
3131;SDS011;62090;52.330;9.104;2023-01-29T12:09:19;52.10;;;35.67;;
3131;SDS011;62090;52.330;9.104;2023-01-29T12:11:53;51.50;;;34.17;;
3131;SDS011;62090;52.330;9.104;2023-01-29T12:14:26;52.27;;;35.80;;
3131;SDS011;62090;52.330;9.104;2023-01-29T12:17:00;50.33;;;33.10;;
3131;SDS011;62090;52.330;9.104;2023-01-29T12:19:37;53.30;;;35.37;;
3131;SDS011;62090;52.330;9.104;2023-01-29T12:22:13;57.33;;;35.27;;
3131;SDS011;62090;52.330;9.104;2023-01-29T12:24:48;51.93;;;33.67;;
3131;SDS011;62090;52.330;9.104;2023-01-29T12:27:21;52.10;;;34.67;;
3131;SDS011;62090;52.330;9.104;2023-01-29T12:29:59;58.37;;;35.70;;
3131;SDS011;62090;52.330;9.104;2023-01-29T12:32:38;51.47;;;34.67;;
3131;SDS011;62090;52.330;9.104;2023-01-29T12:35:20;55.83;;;35.20;;
3131;SDS011;62090;52.330;9.104;2023-01-29T12:37:55;52.67;;;33.43;;
3131;SDS011;62090;52.330;9.104;2023-01-29T12:40:30;51.30;;;34.20;;
3131;SDS011;62090;52.330;9.104;2023-01-29T12:43:03;56.47;;;35.10;;
3131;SDS011;62090;52.330;9.104;2023-01-29T12:45:40;51.37;;;33.93;;
3131;SDS011;62090;52.330;9.104;2023-01-29T12:48:12;51.57;;;33.03;;
3131;SDS011;62090;52.330;9.104;2023-01-29T12:50:50;57.27;;;35.83;;
3131;SDS011;62090;52.330;9.104;2023-01-29T12:53:23;58.40;;;35.17;;
3131;SDS011;62090;52.330;9.104;2023-01-29T12:55:57;48.33;;;33.00;;
3131;SDS011;62090;52.330;9.104;2023-01-29T12:58:33;49.77;;;33.50;;
3131;SDS011;62090;52.330;9.104;2023-01-29T13:01:09;52.43;;;33.90;;
3131;SDS011;62090;52.330;9.104;2023-01-29T13:03:44;47.33;;;31.83;;
3131;SDS011;62090;52.330;9.104;2023-01-29T13:06:24;52.43;;;33.27;;
3131;SDS011;62090;52.330;9.104;2023-01-29T13:08:57;49.90;;;33.10;;
3131;SDS011;62090;52.330;9.104;2023-01-29T13:11:32;50.87;;;32.50;;
3131;SDS011;62090;52.330;9.104;2023-01-29T13:14:07;54.00;;;35.90;;
3131;SDS011;62090;52.330;9.104;2023-01-29T13:16:47;52.77;;;33.50;;
3131;SDS011;62090;52.330;9.104;2023-01-29T13:19:21;49.53;;;32.37;;
3131;SDS011;62090;52.330;9.104;2023-01-29T13:21:58;53.60;;;32.47;;
3131;SDS011;62090;52.330;9.104;2023-01-29T13:24:32;48.53;;;31.20;;
3131;SDS011;62090;52.330;9.104;2023-01-29T13:27:16;52.10;;;33.00;;
3131;SDS011;62090;52.330;9.104;2023-01-29T13:29:50;47.23;;;29.77;;
3131;SDS011;62090;52.330;9.104;2023-01-29T13:32:22;48.00;;;31.63;;
3131;SDS011;62090;52.330;9.104;2023-01-29T13:34:54;48.20;;;30.40;;
3131;SDS011;62090;52.330;9.104;2023-01-29T13:37:29;49.47;;;30.20;;
3131;SDS011;62090;52.330;9.104;2023-01-29T13:40:03;50.80;;;30.77;;
3131;SDS011;62090;52.330;9.104;2023-01-29T13:42:37;48.60;;;31.60;;
3131;SDS011;62090;52.330;9.104;2023-01-29T13:45:16;48.20;;;31.10;;
3131;SDS011;62090;52.330;9.104;2023-01-29T13:47:49;44.80;;;28.83;;
3131;SDS011;62090;52.330;9.104;2023-01-29T13:50:23;49.37;;;29.87;;
3131;SDS011;62090;52.330;9.104;2023-01-29T13:53:01;52.03;;;32.03;;
3131;SDS011;62090;52.330;9.104;2023-01-29T13:55:34;47.37;;;30.93;;
3131;SDS011;62090;52.330;9.104;2023-01-29T13:58:05;49.90;;;31.03;;
3131;SDS011;62090;52.330;9.104;2023-01-29T14:06:37;51.37;;;31.20;;
3131;SDS011;62090;52.330;9.104;2023-01-29T14:12:33;41.00;;;27.17;;
3131;SDS011;62090;52.330;9.104;2023-01-29T14:15:20;48.00;;;28.40;;
3131;SDS011;62090;52.330;9.104;2023-01-29T14:18:01;48.70;;;28.23;;
3131;SDS011;62090;52.330;9.104;2023-01-29T14:20:34;45.60;;;30.00;;
3131;SDS011;62090;52.330;9.104;2023-01-29T14:26:03;47.37;;;28.10;;
3131;SDS011;62090;52.330;9.104;2023-01-29T14:28:37;45.67;;;30.10;;
3131;SDS011;62090;52.330;9.104;2023-01-29T14:31:08;44.37;;;29.07;;
3131;SDS011;62090;52.330;9.104;2023-01-29T14:33:39;43.93;;;29.20;;
3131;SDS011;62090;52.330;9.104;2023-01-29T14:36:11;45.53;;;29.70;;
3131;SDS011;62090;52.330;9.104;2023-01-29T14:38:45;46.53;;;29.90;;
3131;SDS011;62090;52.330;9.104;2023-01-29T14:41:22;46.47;;;29.90;;
3131;SDS011;62090;52.330;9.104;2023-01-29T14:47:07;50.57;;;29.40;;
3131;SDS011;62090;52.330;9.104;2023-01-29T14:49:50;48.73;;;30.30;;
3131;SDS011;62090;52.330;9.104;2023-01-29T14:52:22;45.70;;;27.00;;
3131;SDS011;62090;52.330;9.104;2023-01-29T14:54:57;48.40;;;29.30;;
3131;SDS011;62090;52.330;9.104;2023-01-29T14:57:31;45.63;;;29.90;;
3131;SDS011;62090;52.330;9.104;2023-01-29T15:00:02;47.53;;;30.10;;
3131;SDS011;62090;52.330;9.104;2023-01-29T15:02:39;42.80;;;28.20;;
3131;SDS011;62090;52.330;9.104;2023-01-29T15:05:12;45.67;;;29.07;;
3131;SDS011;62090;52.330;9.104;2023-01-29T15:07:50;48.90;;;28.00;;
3131;SDS011;62090;52.330;9.104;2023-01-29T15:10:26;45.10;;;27.43;;
3131;SDS011;62090;52.330;9.104;2023-01-29T15:13:03;51.23;;;31.60;;
3131;SDS011;62090;52.330;9.104;2023-01-29T15:15:42;45.60;;;28.77;;
3131;SDS011;62090;52.330;9.104;2023-01-29T15:18:28;46.10;;;29.40;;
3131;SDS011;62090;52.330;9.104;2023-01-29T15:21:04;44.30;;;28.40;;
3131;SDS011;62090;52.330;9.104;2023-01-29T15:23:39;44.57;;;27.27;;
3131;SDS011;62090;52.330;9.104;2023-01-29T15:26:10;44.43;;;28.40;;
3131;SDS011;62090;52.330;9.104;2023-01-29T15:28:41;47.23;;;27.83;;
3131;SDS011;62090;52.330;9.104;2023-01-29T15:31:24;41.40;;;28.07;;
3131;SDS011;62090;52.330;9.104;2023-01-29T15:33:57;44.40;;;28.60;;
3131;SDS011;62090;52.330;9.104;2023-01-29T15:36:33;50.37;;;30.27;;
3131;SDS011;62090;52.330;9.104;2023-01-29T15:39:12;46.03;;;27.80;;